sensor_id;sensor_type;location;lat;lon;timestamp;P1;durP1;ratioP1;P2;durP2;ratioP2
32250;SDS011;41295;48.518;9.206;2023-05-23T00:01:51;17.85;;;12.02;;
32250;SDS011;41295;48.518;9.206;2023-05-23T00:03:55;22.35;;;12.77;;
32250;SDS011;41295;48.518;9.206;2023-05-23T00:05:58;17.23;;;12.30;;
32250;SDS011;41295;48.518;9.206;2023-05-23T00:08:02;17.48;;;12.18;;
32250;SDS011;41295;48.518;9.206;2023-05-23T00:10:05;17.13;;;13.05;;
32250;SDS011;41295;48.518;9.206;2023-05-23T00:12:08;18.42;;;12.70;;
32250;SDS011;41295;48.518;9.206;2023-05-23T00:14:12;18.10;;;12.55;;
32250;SDS011;41295;48.518;9.206;2023-05-23T00:16:16;18.77;;;12.98;;
32250;SDS011;41295;48.518;9.206;2023-05-23T00:18:20;21.13;;;13.65;;
32250;SDS011;41295;48.518;9.206;2023-05-23T00:20:25;19.98;;;13.25;;
32250;SDS011;41295;48.518;9.206;2023-05-23T00:22:29;18.70;;;12.43;;
32250;SDS011;41295;48.518;9.206;2023-05-23T00:24:31;20.63;;;12.93;;
32250;SDS011;41295;48.518;9.206;2023-05-23T00:26:34;20.80;;;12.70;;
32250;SDS011;41295;48.518;9.206;2023-05-23T00:28:37;18.27;;;12.68;;
32250;SDS011;41295;48.518;9.206;2023-05-23T00:30:39;19.17;;;13.02;;
32250;SDS011;41295;48.518;9.206;2023-05-23T00:32:42;18.85;;;12.35;;
32250;SDS011;41295;48.518;9.206;2023-05-23T00:34:46;18.27;;;13.07;;
32250;SDS011;41295;48.518;9.206;2023-05-23T00:36:49;21.08;;;13.23;;
32250;SDS011;41295;48.518;9.206;2023-05-23T00:38:51;23.05;;;12.68;;
32250;SDS011;41295;48.518;9.206;2023-05-23T00:40:54;20.02;;;13.75;;
32250;SDS011;41295;48.518;9.206;2023-05-23T00:42:57;19.88;;;13.15;;
32250;SDS011;41295;48.518;9.206;2023-05-23T00:44:59;17.58;;;12.95;;
32250;SDS011;41295;48.518;9.206;2023-05-23T00:47:02;18.52;;;13.30;;
32250;SDS011;41295;48.518;9.206;2023-05-23T00:49:06;20.98;;;14.13;;
32250;SDS011;41295;48.518;9.206;2023-05-23T00:51:10;21.25;;;13.98;;
32250;SDS011;41295;48.518;9.206;2023-05-23T00:53:12;19.42;;;13.48;;
32250;SDS011;41295;48.518;9.206;2023-05-23T00:55:15;20.75;;;15.07;;
32250;SDS011;41295;48.518;9.206;2023-05-23T00:57:18;25.55;;;14.93;;
32250;SDS011;41295;48.518;9.206;2023-05-23T00:59:20;23.88;;;14.50;;
32250;SDS011;41295;48.518;9.206;2023-05-23T01:01:25;25.75;;;15.13;;
32250;SDS011;41295;48.518;9.206;2023-05-23T01:03:28;19.15;;;14.23;;
32250;SDS011;41295;48.518;9.206;2023-05-23T01:05:31;20.20;;;15.05;;
32250;SDS011;41295;48.518;9.206;2023-05-23T01:07:35;23.63;;;14.85;;
32250;SDS011;41295;48.518;9.206;2023-05-23T01:09:37;19.25;;;14.23;;
32250;SDS011;41295;48.518;9.206;2023-05-23T01:11:41;20.92;;;14.52;;
32250;SDS011;41295;48.518;9.206;2023-05-23T01:13:50;25.83;;;14.98;;
32250;SDS011;41295;48.518;9.206;2023-05-23T01:16:01;19.98;;;14.57;;
32250;SDS011;41295;48.518;9.206;2023-05-23T01:18:09;24.75;;;15.02;;
32250;SDS011;41295;48.518;9.206;2023-05-23T01:20:16;24.45;;;15.10;;
32250;SDS011;41295;48.518;9.206;2023-05-23T01:22:24;24.50;;;14.55;;
32250;SDS011;41295;48.518;9.206;2023-05-23T01:24:53;20.65;;;14.38;;
32250;SDS011;41295;48.518;9.206;2023-05-23T01:27:00;19.50;;;13.88;;
32250;SDS011;41295;48.518;9.206;2023-05-23T01:29:12;25.30;;;14.75;;
32250;SDS011;41295;48.518;9.206;2023-05-23T01:31:20;20.52;;;14.75;;
32250;SDS011;41295;48.518;9.206;2023-05-23T01:33:25;22.85;;;14.70;;
32250;SDS011;41295;48.518;9.206;2023-05-23T01:35:30;21.92;;;15.13;;
32250;SDS011;41295;48.518;9.206;2023-05-23T01:37:34;20.52;;;14.40;;
32250;SDS011;41295;48.518;9.206;2023-05-23T01:39:36;24.05;;;15.27;;
32250;SDS011;41295;48.518;9.206;2023-05-23T01:41:39;26.17;;;16.15;;
32250;SDS011;41295;48.518;9.206;2023-05-23T01:43:42;32.13;;;17.92;;
32250;SDS011;41295;48.518;9.206;2023-05-23T01:45:49;30.95;;;16.52;;
32250;SDS011;41295;48.518;9.206;2023-05-23T01:47:55;26.00;;;17.33;;
32250;SDS011;41295;48.518;9.206;2023-05-23T01:49:58;31.80;;;17.88;;
32250;SDS011;41295;48.518;9.206;2023-05-23T01:52:02;29.92;;;18.92;;
32250;SDS011;41295;48.518;9.206;2023-05-23T01:54:10;34.13;;;18.83;;
32250;SDS011;41295;48.518;9.206;2023-05-23T01:56:13;28.83;;;17.85;;
32250;SDS011;41295;48.518;9.206;2023-05-23T01:58:16;32.72;;;19.10;;
32250;SDS011;41295;48.518;9.206;2023-05-23T02:00:19;32.13;;;19.92;;
32250;SDS011;41295;48.518;9.206;2023-05-23T02:02:23;40.25;;;23.88;;
32250;SDS011;41295;48.518;9.206;2023-05-23T02:04:26;35.15;;;22.15;;
32250;SDS011;41295;48.518;9.206;2023-05-23T02:06:29;50.17;;;24.77;;
32250;SDS011;41295;48.518;9.206;2023-05-23T02:08:32;46.65;;;25.23;;
32250;SDS011;41295;48.518;9.206;2023-05-23T02:10:35;48.65;;;26.50;;
32250;SDS011;41295;48.518;9.206;2023-05-23T02:12:37;40.15;;;25.17;;
32250;SDS011;41295;48.518;9.206;2023-05-23T02:14:40;42.08;;;25.98;;
32250;SDS011;41295;48.518;9.206;2023-05-23T02:16:43;43.88;;;25.35;;
32250;SDS011;41295;48.518;9.206;2023-05-23T02:18:47;51.60;;;28.40;;
32250;SDS011;41295;48.518;9.206;2023-05-23T02:20:52;44.90;;;27.40;;
32250;SDS011;41295;48.518;9.206;2023-05-23T02:22:56;50.92;;;28.00;;
32250;SDS011;41295;48.518;9.206;2023-05-23T02:24:59;50.67;;;28.10;;
32250;SDS011;41295;48.518;9.206;2023-05-23T02:27:01;50.50;;;29.35;;
32250;SDS011;41295;48.518;9.206;2023-05-23T02:29:04;49.05;;;29.48;;
32250;SDS011;41295;48.518;9.206;2023-05-23T02:31:07;50.38;;;28.48;;
32250;SDS011;41295;48.518;9.206;2023-05-23T02:33:09;58.97;;;30.33;;
32250;SDS011;41295;48.518;9.206;2023-05-23T02:35:13;49.35;;;29.70;;
32250;SDS011;41295;48.518;9.206;2023-05-23T02:37:16;51.40;;;29.63;;
32250;SDS011;41295;48.518;9.206;2023-05-23T02:39:19;56.95;;;31.98;;
32250;SDS011;41295;48.518;9.206;2023-05-23T02:41:21;58.90;;;33.40;;
32250;SDS011;41295;48.518;9.206;2023-05-23T02:43:24;60.28;;;35.17;;
32250;SDS011;41295;48.518;9.206;2023-05-23T02:45:27;63.20;;;32.88;;
32250;SDS011;41295;48.518;9.206;2023-05-23T02:47:29;63.08;;;34.80;;
32250;SDS011;41295;48.518;9.206;2023-05-23T02:49:32;64.45;;;34.03;;
32250;SDS011;41295;48.518;9.206;2023-05-23T02:51:36;59.78;;;32.75;;
32250;SDS011;41295;48.518;9.206;2023-05-23T02:53:39;61.53;;;34.25;;
32250;SDS011;41295;48.518;9.206;2023-05-23T02:55:42;62.67;;;35.15;;
32250;SDS011;41295;48.518;9.206;2023-05-23T02:57:45;62.45;;;33.72;;
32250;SDS011;41295;48.518;9.206;2023-05-23T02:59:47;62.05;;;35.28;;
32250;SDS011;41295;48.518;9.206;2023-05-23T03:01:50;60.88;;;33.63;;
32250;SDS011;41295;48.518;9.206;2023-05-23T03:03:53;66.65;;;35.92;;
32250;SDS011;41295;48.518;9.206;2023-05-23T03:05:56;66.85;;;36.47;;
32250;SDS011;41295;48.518;9.206;2023-05-23T03:08:00;68.75;;;35.60;;
32250;SDS011;41295;48.518;9.206;2023-05-23T03:10:03;72.28;;;37.30;;
32250;SDS011;41295;48.518;9.206;2023-05-23T03:12:06;62.63;;;35.20;;
32250;SDS011;41295;48.518;9.206;2023-05-23T03:14:09;62.50;;;36.42;;
32250;SDS011;41295;48.518;9.206;2023-05-23T03:16:11;69.25;;;37.47;;
32250;SDS011;41295;48.518;9.206;2023-05-23T03:18:14;68.60;;;36.55;;
32250;SDS011;41295;48.518;9.206;2023-05-23T03:20:17;66.38;;;37.40;;
32250;SDS011;41295;48.518;9.206;2023-05-23T03:22:20;68.88;;;39.55;;
32250;SDS011;41295;48.518;9.206;2023-05-23T03:24:24;72.40;;;38.65;;
32250;SDS011;41295;48.518;9.206;2023-05-23T03:26:27;73.65;;;37.90;;
32250;SDS011;41295;48.518;9.206;2023-05-23T03:28:31;73.07;;;37.05;;
32250;SDS011;41295;48.518;9.206;2023-05-23T03:30:34;66.40;;;36.38;;
32250;SDS011;41295;48.518;9.206;2023-05-23T03:32:36;62.47;;;37.67;;
32250;SDS011;41295;48.518;9.206;2023-05-23T03:34:39;62.83;;;35.33;;
32250;SDS011;41295;48.518;9.206;2023-05-23T03:36:42;60.60;;;35.63;;
32250;SDS011;41295;48.518;9.206;2023-05-23T03:38:45;63.08;;;33.63;;
32250;SDS011;41295;48.518;9.206;2023-05-23T03:40:49;64.60;;;34.15;;
32250;SDS011;41295;48.518;9.206;2023-05-23T03:43:00;57.65;;;31.63;;
32250;SDS011;41295;48.518;9.206;2023-05-23T03:45:04;56.40;;;32.30;;
32250;SDS011;41295;48.518;9.206;2023-05-23T03:47:08;50.67;;;29.67;;
32250;SDS011;41295;48.518;9.206;2023-05-23T03:49:11;52.85;;;29.50;;
32250;SDS011;41295;48.518;9.206;2023-05-23T03:51:13;51.05;;;28.00;;
32250;SDS011;41295;48.518;9.206;2023-05-23T03:53:16;49.65;;;28.10;;
32250;SDS011;41295;48.518;9.206;2023-05-23T03:55:19;43.03;;;27.83;;
32250;SDS011;41295;48.518;9.206;2023-05-23T03:57:25;47.13;;;26.70;;
32250;SDS011;41295;48.518;9.206;2023-05-23T03:59:28;44.92;;;26.95;;
32250;SDS011;41295;48.518;9.206;2023-05-23T04:01:31;50.05;;;26.65;;
32250;SDS011;41295;48.518;9.206;2023-05-23T04:03:34;44.50;;;26.10;;
32250;SDS011;41295;48.518;9.206;2023-05-23T04:05:37;41.60;;;26.08;;
32250;SDS011;41295;48.518;9.206;2023-05-23T04:07:40;38.97;;;24.50;;
32250;SDS011;41295;48.518;9.206;2023-05-23T04:09:43;45.53;;;25.77;;
32250;SDS011;41295;48.518;9.206;2023-05-23T04:11:46;44.00;;;24.88;;
32250;SDS011;41295;48.518;9.206;2023-05-23T04:13:50;43.33;;;26.77;;
32250;SDS011;41295;48.518;9.206;2023-05-23T04:15:53;44.63;;;25.35;;
32250;SDS011;41295;48.518;9.206;2023-05-23T04:17:57;48.42;;;26.48;;
32250;SDS011;41295;48.518;9.206;2023-05-23T04:20:00;48.78;;;26.77;;
32250;SDS011;41295;48.518;9.206;2023-05-23T04:22:03;50.05;;;27.08;;
32250;SDS011;41295;48.518;9.206;2023-05-23T04:24:06;47.90;;;27.63;;
32250;SDS011;41295;48.518;9.206;2023-05-23T04:26:09;50.10;;;27.83;;
32250;SDS011;41295;48.518;9.206;2023-05-23T04:28:11;49.92;;;28.70;;
32250;SDS011;41295;48.518;9.206;2023-05-23T04:30:16;53.30;;;28.45;;
32250;SDS011;41295;48.518;9.206;2023-05-23T04:32:19;44.03;;;26.80;;
32250;SDS011;41295;48.518;9.206;2023-05-23T04:34:23;46.55;;;28.08;;
32250;SDS011;41295;48.518;9.206;2023-05-23T04:36:26;48.22;;;27.58;;
32250;SDS011;41295;48.518;9.206;2023-05-23T04:38:29;48.35;;;26.95;;
32250;SDS011;41295;48.518;9.206;2023-05-23T04:40:32;46.95;;;27.98;;
32250;SDS011;41295;48.518;9.206;2023-05-23T04:42:34;49.05;;;29.75;;
32250;SDS011;41295;48.518;9.206;2023-05-23T04:44:37;44.15;;;26.42;;
32250;SDS011;41295;48.518;9.206;2023-05-23T04:46:41;48.38;;;26.10;;
32250;SDS011;41295;48.518;9.206;2023-05-23T04:48:45;50.08;;;26.27;;
32250;SDS011;41295;48.518;9.206;2023-05-23T04:50:48;49.28;;;26.98;;
32250;SDS011;41295;48.518;9.206;2023-05-23T04:52:52;45.70;;;25.98;;
32250;SDS011;41295;48.518;9.206;2023-05-23T04:54:56;39.75;;;25.35;;
32250;SDS011;41295;48.518;9.206;2023-05-23T04:57:00;44.13;;;26.45;;
32250;SDS011;41295;48.518;9.206;2023-05-23T04:59:02;40.05;;;24.38;;
32250;SDS011;41295;48.518;9.206;2023-05-23T05:01:05;42.83;;;25.10;;
32250;SDS011;41295;48.518;9.206;2023-05-23T05:03:11;44.05;;;24.80;;
32250;SDS011;41295;48.518;9.206;2023-05-23T05:05:14;40.67;;;25.50;;
32250;SDS011;41295;48.518;9.206;2023-05-23T05:07:16;37.95;;;26.77;;
32250;SDS011;41295;48.518;9.206;2023-05-23T05:09:19;44.15;;;26.38;;
32250;SDS011;41295;48.518;9.206;2023-05-23T05:11:22;46.17;;;25.20;;
32250;SDS011;41295;48.518;9.206;2023-05-23T05:13:25;43.72;;;26.42;;
32250;SDS011;41295;48.518;9.206;2023-05-23T05:15:27;44.10;;;27.77;;
32250;SDS011;41295;48.518;9.206;2023-05-23T05:17:30;52.88;;;30.05;;
32250;SDS011;41295;48.518;9.206;2023-05-23T05:19:38;66.32;;;34.90;;
32250;SDS011;41295;48.518;9.206;2023-05-23T05:21:41;62.95;;;35.78;;
32250;SDS011;41295;48.518;9.206;2023-05-23T05:23:43;64.13;;;36.88;;
32250;SDS011;41295;48.518;9.206;2023-05-23T05:25:46;67.03;;;37.92;;
32250;SDS011;41295;48.518;9.206;2023-05-23T05:27:49;66.30;;;36.38;;
32250;SDS011;41295;48.518;9.206;2023-05-23T05:29:53;67.75;;;37.13;;
32250;SDS011;41295;48.518;9.206;2023-05-23T05:32:00;64.95;;;36.03;;
32250;SDS011;41295;48.518;9.206;2023-05-23T05:34:03;63.33;;;35.83;;
32250;SDS011;41295;48.518;9.206;2023-05-23T05:36:07;63.15;;;37.42;;
32250;SDS011;41295;48.518;9.206;2023-05-23T05:38:10;62.45;;;37.03;;
32250;SDS011;41295;48.518;9.206;2023-05-23T05:40:12;64.85;;;38.38;;
32250;SDS011;41295;48.518;9.206;2023-05-23T05:42:15;70.40;;;40.40;;
32250;SDS011;41295;48.518;9.206;2023-05-23T05:44:18;67.40;;;40.03;;
32250;SDS011;41295;48.518;9.206;2023-05-23T05:46:20;70.88;;;42.05;;
32250;SDS011;41295;48.518;9.206;2023-05-23T05:48:23;75.60;;;42.47;;
32250;SDS011;41295;48.518;9.206;2023-05-23T05:50:26;73.53;;;41.67;;
32250;SDS011;41295;48.518;9.206;2023-05-23T05:52:30;71.10;;;40.78;;
32250;SDS011;41295;48.518;9.206;2023-05-23T05:54:34;76.53;;;43.50;;
32250;SDS011;41295;48.518;9.206;2023-05-23T05:56:37;78.65;;;45.20;;
32250;SDS011;41295;48.518;9.206;2023-05-23T05:58:40;79.53;;;47.30;;
32250;SDS011;41295;48.518;9.206;2023-05-23T06:00:43;83.47;;;48.78;;
32250;SDS011;41295;48.518;9.206;2023-05-23T06:02:46;86.72;;;49.88;;
32250;SDS011;41295;48.518;9.206;2023-05-23T06:04:51;89.13;;;50.53;;
32250;SDS011;41295;48.518;9.206;2023-05-23T06:06:54;92.07;;;50.53;;
32250;SDS011;41295;48.518;9.206;2023-05-23T06:08:58;90.80;;;51.05;;
32250;SDS011;41295;48.518;9.206;2023-05-23T06:11:01;90.85;;;52.25;;
32250;SDS011;41295;48.518;9.206;2023-05-23T06:13:03;88.95;;;52.25;;
32250;SDS011;41295;48.518;9.206;2023-05-23T06:15:06;86.10;;;49.42;;
32250;SDS011;41295;48.518;9.206;2023-05-23T06:17:10;83.85;;;51.08;;
32250;SDS011;41295;48.518;9.206;2023-05-23T06:19:14;83.60;;;50.70;;
32250;SDS011;41295;48.518;9.206;2023-05-23T06:21:16;90.28;;;52.80;;
32250;SDS011;41295;48.518;9.206;2023-05-23T06:23:21;87.82;;;52.13;;
32250;SDS011;41295;48.518;9.206;2023-05-23T06:25:25;95.88;;;56.45;;
32250;SDS011;41295;48.518;9.206;2023-05-23T06:27:28;88.78;;;51.70;;
32250;SDS011;41295;48.518;9.206;2023-05-23T06:29:30;91.95;;;53.63;;
32250;SDS011;41295;48.518;9.206;2023-05-23T06:31:35;90.78;;;53.45;;
32250;SDS011;41295;48.518;9.206;2023-05-23T06:33:38;90.38;;;54.67;;
32250;SDS011;41295;48.518;9.206;2023-05-23T06:35:41;86.88;;;53.22;;
32250;SDS011;41295;48.518;9.206;2023-05-23T06:37:44;80.93;;;52.45;;
32250;SDS011;41295;48.518;9.206;2023-05-23T06:39:46;84.00;;;53.38;;
32250;SDS011;41295;48.518;9.206;2023-05-23T06:41:50;84.78;;;52.10;;
32250;SDS011;41295;48.518;9.206;2023-05-23T06:43:53;87.03;;;53.28;;
32250;SDS011;41295;48.518;9.206;2023-05-23T06:45:55;86.78;;;52.88;;
32250;SDS011;41295;48.518;9.206;2023-05-23T06:47:58;85.97;;;53.90;;
32250;SDS011;41295;48.518;9.206;2023-05-23T06:50:01;88.15;;;54.05;;
32250;SDS011;41295;48.518;9.206;2023-05-23T06:52:04;81.45;;;52.17;;
32250;SDS011;41295;48.518;9.206;2023-05-23T06:54:07;80.32;;;52.25;;
32250;SDS011;41295;48.518;9.206;2023-05-23T06:56:09;90.88;;;53.47;;
32250;SDS011;41295;48.518;9.206;2023-05-23T06:58:13;89.15;;;53.17;;
32250;SDS011;41295;48.518;9.206;2023-05-23T07:00:16;90.00;;;56.80;;
32250;SDS011;41295;48.518;9.206;2023-05-23T07:02:19;85.50;;;52.65;;
32250;SDS011;41295;48.518;9.206;2023-05-23T07:04:22;84.38;;;52.92;;
32250;SDS011;41295;48.518;9.206;2023-05-23T07:06:25;88.70;;;54.35;;
32250;SDS011;41295;48.518;9.206;2023-05-23T07:08:28;83.53;;;53.65;;
32250;SDS011;41295;48.518;9.206;2023-05-23T07:10:31;84.60;;;52.50;;
32250;SDS011;41295;48.518;9.206;2023-05-23T07:12:34;81.07;;;54.03;;
32250;SDS011;41295;48.518;9.206;2023-05-23T07:14:38;80.07;;;52.55;;
32250;SDS011;41295;48.518;9.206;2023-05-23T07:16:41;89.00;;;54.85;;
32250;SDS011;41295;48.518;9.206;2023-05-23T07:18:44;84.47;;;53.17;;
32250;SDS011;41295;48.518;9.206;2023-05-23T07:20:46;79.80;;;53.10;;
32250;SDS011;41295;48.518;9.206;2023-05-23T07:22:49;88.80;;;54.67;;
32250;SDS011;41295;48.518;9.206;2023-05-23T07:24:52;81.53;;;51.85;;
32250;SDS011;41295;48.518;9.206;2023-05-23T07:26:55;83.10;;;52.53;;
32250;SDS011;41295;48.518;9.206;2023-05-23T07:28:58;74.38;;;50.60;;
32250;SDS011;41295;48.518;9.206;2023-05-23T07:31:04;83.28;;;52.88;;
32250;SDS011;41295;48.518;9.206;2023-05-23T07:33:09;80.07;;;51.90;;
32250;SDS011;41295;48.518;9.206;2023-05-23T07:35:12;80.72;;;52.05;;
32250;SDS011;41295;48.518;9.206;2023-05-23T07:37:18;77.78;;;51.95;;
32250;SDS011;41295;48.518;9.206;2023-05-23T07:39:21;81.47;;;52.58;;
32250;SDS011;41295;48.518;9.206;2023-05-23T07:41:24;81.47;;;53.33;;
32250;SDS011;41295;48.518;9.206;2023-05-23T07:43:27;80.93;;;51.90;;
32250;SDS011;41295;48.518;9.206;2023-05-23T07:45:32;83.15;;;52.00;;
32250;SDS011;41295;48.518;9.206;2023-05-23T07:47:36;83.00;;;52.30;;
32250;SDS011;41295;48.518;9.206;2023-05-23T07:49:39;79.40;;;50.55;;
32250;SDS011;41295;48.518;9.206;2023-05-23T07:51:41;84.05;;;52.78;;
32250;SDS011;41295;48.518;9.206;2023-05-23T07:53:44;79.63;;;50.78;;
32250;SDS011;41295;48.518;9.206;2023-05-23T07:55:47;80.03;;;51.78;;
32250;SDS011;41295;48.518;9.206;2023-05-23T07:57:49;74.85;;;51.08;;
32250;SDS011;41295;48.518;9.206;2023-05-23T07:59:52;73.85;;;49.78;;
32250;SDS011;41295;48.518;9.206;2023-05-23T08:01:55;74.05;;;47.95;;
32250;SDS011;41295;48.518;9.206;2023-05-23T08:04:00;72.90;;;46.97;;
32250;SDS011;41295;48.518;9.206;2023-05-23T08:06:04;76.88;;;48.90;;
32250;SDS011;41295;48.518;9.206;2023-05-23T08:08:07;66.30;;;46.35;;
32250;SDS011;41295;48.518;9.206;2023-05-23T08:10:10;75.43;;;47.70;;
32250;SDS011;41295;48.518;9.206;2023-05-23T08:12:12;70.15;;;45.53;;
32250;SDS011;41295;48.518;9.206;2023-05-23T08:14:15;66.20;;;45.53;;
32250;SDS011;41295;48.518;9.206;2023-05-23T08:16:18;64.25;;;44.88;;
32250;SDS011;41295;48.518;9.206;2023-05-23T08:18:22;67.32;;;43.97;;
32250;SDS011;41295;48.518;9.206;2023-05-23T08:20:26;64.88;;;45.10;;
32250;SDS011;41295;48.518;9.206;2023-05-23T08:22:31;70.50;;;44.17;;
32250;SDS011;41295;48.518;9.206;2023-05-23T08:24:33;64.88;;;43.88;;
32250;SDS011;41295;48.518;9.206;2023-05-23T08:26:36;66.68;;;43.00;;
32250;SDS011;41295;48.518;9.206;2023-05-23T08:28:39;65.10;;;42.22;;
32250;SDS011;41295;48.518;9.206;2023-05-23T08:30:41;59.25;;;41.85;;
32250;SDS011;41295;48.518;9.206;2023-05-23T08:32:44;63.55;;;42.85;;
32250;SDS011;41295;48.518;9.206;2023-05-23T08:34:47;67.38;;;44.15;;
32250;SDS011;41295;48.518;9.206;2023-05-23T08:36:51;63.10;;;43.13;;
32250;SDS011;41295;48.518;9.206;2023-05-23T08:38:54;63.22;;;42.85;;
32250;SDS011;41295;48.518;9.206;2023-05-23T08:40:57;68.70;;;43.88;;
32250;SDS011;41295;48.518;9.206;2023-05-23T08:43:02;60.95;;;42.25;;
32250;SDS011;41295;48.518;9.206;2023-05-23T08:45:06;58.25;;;41.70;;
32250;SDS011;41295;48.518;9.206;2023-05-23T08:47:10;58.95;;;42.25;;
32250;SDS011;41295;48.518;9.206;2023-05-23T08:49:14;58.42;;;41.10;;
32250;SDS011;41295;48.518;9.206;2023-05-23T08:51:20;58.03;;;41.38;;
32250;SDS011;41295;48.518;9.206;2023-05-23T08:53:24;58.97;;;41.08;;
32250;SDS011;41295;48.518;9.206;2023-05-23T08:55:28;58.55;;;41.15;;
32250;SDS011;41295;48.518;9.206;2023-05-23T08:57:31;57.30;;;40.80;;
32250;SDS011;41295;48.518;9.206;2023-05-23T08:59:35;59.05;;;40.67;;
32250;SDS011;41295;48.518;9.206;2023-05-23T09:01:40;60.72;;;39.35;;
32250;SDS011;41295;48.518;9.206;2023-05-23T09:03:43;62.60;;;42.42;;
32250;SDS011;41295;48.518;9.206;2023-05-23T09:05:46;59.92;;;41.30;;
32250;SDS011;41295;48.518;9.206;2023-05-23T09:07:49;58.38;;;40.08;;
32250;SDS011;41295;48.518;9.206;2023-05-23T09:09:53;58.70;;;40.75;;
32250;SDS011;41295;48.518;9.206;2023-05-23T09:11:56;58.03;;;40.78;;
32250;SDS011;41295;48.518;9.206;2023-05-23T09:14:01;58.65;;;40.10;;
32250;SDS011;41295;48.518;9.206;2023-05-23T09:16:05;60.53;;;40.08;;
32250;SDS011;41295;48.518;9.206;2023-05-23T09:18:09;62.47;;;39.60;;
32250;SDS011;41295;48.518;9.206;2023-05-23T09:20:12;63.50;;;39.88;;
32250;SDS011;41295;48.518;9.206;2023-05-23T09:22:15;64.18;;;39.65;;
32250;SDS011;41295;48.518;9.206;2023-05-23T09:24:18;54.03;;;39.05;;
32250;SDS011;41295;48.518;9.206;2023-05-23T09:26:22;54.78;;;37.88;;
32250;SDS011;41295;48.518;9.206;2023-05-23T09:28:25;54.90;;;37.55;;
32250;SDS011;41295;48.518;9.206;2023-05-23T09:30:27;50.20;;;36.15;;
32250;SDS011;41295;48.518;9.206;2023-05-23T09:32:35;55.60;;;36.20;;
32250;SDS011;41295;48.518;9.206;2023-05-23T09:34:41;55.03;;;35.30;;
32250;SDS011;41295;48.518;9.206;2023-05-23T09:36:54;47.00;;;34.40;;
32250;SDS011;41295;48.518;9.206;2023-05-23T09:39:00;53.30;;;34.38;;
32250;SDS011;41295;48.518;9.206;2023-05-23T09:41:04;48.22;;;33.55;;
32250;SDS011;41295;48.518;9.206;2023-05-23T09:43:08;47.70;;;33.15;;
32250;SDS011;41295;48.518;9.206;2023-05-23T09:45:11;51.15;;;31.85;;
32250;SDS011;41295;48.518;9.206;2023-05-23T09:47:14;52.63;;;35.53;;
32250;SDS011;41295;48.518;9.206;2023-05-23T09:49:17;49.80;;;33.75;;
32250;SDS011;41295;48.518;9.206;2023-05-23T09:51:21;47.55;;;33.03;;
32250;SDS011;41295;48.518;9.206;2023-05-23T09:53:24;49.05;;;32.70;;
32250;SDS011;41295;48.518;9.206;2023-05-23T09:55:27;43.78;;;31.02;;
32250;SDS011;41295;48.518;9.206;2023-05-23T09:57:31;41.95;;;29.92;;
32250;SDS011;41295;48.518;9.206;2023-05-23T09:59:39;48.22;;;31.17;;
32250;SDS011;41295;48.518;9.206;2023-05-23T10:01:43;45.28;;;31.10;;
32250;SDS011;41295;48.518;9.206;2023-05-23T10:03:51;46.38;;;30.15;;
32250;SDS011;41295;48.518;9.206;2023-05-23T10:06:02;43.13;;;31.05;;
32250;SDS011;41295;48.518;9.206;2023-05-23T10:08:10;46.65;;;30.70;;
32250;SDS011;41295;48.518;9.206;2023-05-23T10:10:15;40.13;;;29.55;;
32250;SDS011;41295;48.518;9.206;2023-05-23T10:12:35;49.35;;;31.08;;
32250;SDS011;41295;48.518;9.206;2023-05-23T10:14:48;41.65;;;28.60;;
32250;SDS011;41295;48.518;9.206;2023-05-23T10:16:57;43.53;;;28.73;;
32250;SDS011;41295;48.518;9.206;2023-05-23T10:19:09;42.55;;;28.75;;
32250;SDS011;41295;48.518;9.206;2023-05-23T10:21:21;42.08;;;29.83;;
32250;SDS011;41295;48.518;9.206;2023-05-23T10:23:32;40.63;;;28.02;;
32250;SDS011;41295;48.518;9.206;2023-05-23T10:25:35;42.00;;;28.60;;
32250;SDS011;41295;48.518;9.206;2023-05-23T10:27:39;44.92;;;28.95;;
32250;SDS011;41295;48.518;9.206;2023-05-23T10:29:41;43.33;;;29.35;;
32250;SDS011;41295;48.518;9.206;2023-05-23T10:31:46;43.58;;;29.88;;
32250;SDS011;41295;48.518;9.206;2023-05-23T10:33:51;39.10;;;27.25;;
32250;SDS011;41295;48.518;9.206;2023-05-23T10:35:59;38.53;;;28.95;;
32250;SDS011;41295;48.518;9.206;2023-05-23T10:38:14;49.65;;;28.95;;
32250;SDS011;41295;48.518;9.206;2023-05-23T10:40:30;41.60;;;26.80;;
32250;SDS011;41295;48.518;9.206;2023-05-23T10:42:47;38.83;;;28.38;;
32250;SDS011;41295;48.518;9.206;2023-05-23T10:45:01;40.22;;;27.38;;
32250;SDS011;41295;48.518;9.206;2023-05-23T10:47:25;40.90;;;27.83;;
32250;SDS011;41295;48.518;9.206;2023-05-23T10:49:41;40.10;;;26.67;;
32250;SDS011;41295;48.518;9.206;2023-05-23T10:51:46;37.85;;;26.48;;
32250;SDS011;41295;48.518;9.206;2023-05-23T10:53:52;33.15;;;24.55;;
32250;SDS011;41295;48.518;9.206;2023-05-23T10:55:55;33.80;;;24.83;;
32250;SDS011;41295;48.518;9.206;2023-05-23T10:58:08;37.30;;;24.83;;
32250;SDS011;41295;48.518;9.206;2023-05-23T11:00:13;39.28;;;24.42;;
32250;SDS011;41295;48.518;9.206;2023-05-23T11:02:18;36.42;;;25.75;;
32250;SDS011;41295;48.518;9.206;2023-05-23T11:04:28;35.80;;;24.63;;
32250;SDS011;41295;48.518;9.206;2023-05-23T11:06:31;34.85;;;24.95;;
32250;SDS011;41295;48.518;9.206;2023-05-23T11:08:39;40.03;;;24.98;;
32250;SDS011;41295;48.518;9.206;2023-05-23T11:10:57;36.17;;;25.23;;
32250;SDS011;41295;48.518;9.206;2023-05-23T11:13:06;34.47;;;24.25;;
32250;SDS011;41295;48.518;9.206;2023-05-23T11:15:18;33.80;;;23.33;;
32250;SDS011;41295;48.518;9.206;2023-05-23T11:17:28;31.10;;;22.02;;
32250;SDS011;41295;48.518;9.206;2023-05-23T11:19:34;31.58;;;22.40;;
32250;SDS011;41295;48.518;9.206;2023-05-23T11:21:51;32.20;;;23.00;;
32250;SDS011;41295;48.518;9.206;2023-05-23T11:23:55;28.17;;;20.23;;
32250;SDS011;41295;48.518;9.206;2023-05-23T11:25:58;29.55;;;18.70;;
32250;SDS011;41295;48.518;9.206;2023-05-23T11:28:02;25.85;;;18.27;;
32250;SDS011;41295;48.518;9.206;2023-05-23T11:30:06;24.42;;;17.88;;
32250;SDS011;41295;48.518;9.206;2023-05-23T11:32:10;27.38;;;19.58;;
32250;SDS011;41295;48.518;9.206;2023-05-23T11:34:17;26.33;;;18.92;;
32250;SDS011;41295;48.518;9.206;2023-05-23T11:36:23;23.95;;;17.90;;
32250;SDS011;41295;48.518;9.206;2023-05-23T11:38:26;23.77;;;16.60;;
32250;SDS011;41295;48.518;9.206;2023-05-23T11:40:29;27.92;;;16.88;;
32250;SDS011;41295;48.518;9.206;2023-05-23T11:42:33;20.83;;;16.52;;
32250;SDS011;41295;48.518;9.206;2023-05-23T11:44:43;25.63;;;17.88;;
32250;SDS011;41295;48.518;9.206;2023-05-23T11:46:57;20.95;;;15.32;;
32250;SDS011;41295;48.518;9.206;2023-05-23T11:49:02;21.02;;;15.65;;
32250;SDS011;41295;48.518;9.206;2023-05-23T11:51:12;21.70;;;15.70;;
32250;SDS011;41295;48.518;9.206;2023-05-23T11:53:17;22.23;;;16.17;;
32250;SDS011;41295;48.518;9.206;2023-05-23T11:55:22;23.38;;;15.60;;
32250;SDS011;41295;48.518;9.206;2023-05-23T11:57:25;21.55;;;16.10;;
32250;SDS011;41295;48.518;9.206;2023-05-23T11:59:28;20.15;;;14.75;;
32250;SDS011;41295;48.518;9.206;2023-05-23T12:01:31;19.83;;;14.93;;
32250;SDS011;41295;48.518;9.206;2023-05-23T12:03:43;21.50;;;15.27;;
32250;SDS011;41295;48.518;9.206;2023-05-23T12:05:47;22.90;;;15.07;;
32250;SDS011;41295;48.518;9.206;2023-05-23T12:07:50;20.85;;;14.63;;